createdAt,value
2023-03-28T00:01:26.732Z,2.73
2023-03-28T00:03:35.549Z,3.13
2023-03-28T00:05:41.128Z,2.87
2023-03-28T00:07:44.128Z,4.60
2023-03-28T00:09:47.284Z,3.50
2023-03-28T00:11:49.987Z,2.60
2023-03-28T00:13:57.680Z,4.30
2023-03-28T00:16:04.327Z,4.03
2023-03-28T00:18:08.198Z,3.33
2023-03-28T00:20:14.460Z,3.50
2023-03-28T00:22:17.384Z,3.40
2023-03-28T00:24:22.093Z,3.63
2023-03-28T00:26:26.831Z,3.80
2023-03-28T00:28:29.601Z,3.00
2023-03-28T00:30:32.315Z,3.83
2023-03-28T00:32:35.085Z,3.80
2023-03-28T00:34:37.880Z,2.60
2023-03-28T00:36:42.650Z,2.53
2023-03-28T00:38:45.517Z,2.73
2023-03-28T00:40:48.696Z,3.03
2023-03-28T00:42:51.421Z,3.30
2023-03-28T00:44:55.069Z,3.03
2023-03-28T00:46:57.959Z,3.60
2023-03-28T00:49:03.366Z,3.43
2023-03-28T00:51:06.444Z,3.00
2023-03-28T00:53:11.210Z,2.27
2023-03-28T00:55:16.570Z,3.43
2023-03-28T00:57:19.335Z,3.17
2023-03-28T00:59:23.528Z,3.13
2023-03-28T01:01:26.312Z,2.77
2023-03-28T01:03:30.406Z,3.47
2023-03-28T01:05:33.829Z,3.57
2023-03-28T01:07:39.600Z,3.50
2023-03-28T01:09:43.676Z,4.33
2023-03-28T01:11:46.373Z,3.23
2023-03-28T01:13:50.952Z,2.57
2023-03-28T01:15:53.971Z,3.67
2023-03-28T01:17:55.854Z,3.00
2023-03-28T01:20:04.165Z,3.37
2023-03-28T01:22:26.572Z,3.57
2023-03-28T01:24:51.976Z,4.13
2023-03-28T01:26:54.951Z,3.90
2023-03-28T01:29:36.756Z,3.50
2023-03-28T01:31:48.140Z,3.13
2023-03-28T01:34:00.527Z,3.50
2023-03-28T01:36:37.185Z,3.73
2023-03-28T01:38:42.223Z,4.20
2023-03-28T01:40:46.745Z,3.10
2023-03-28T01:42:54.520Z,3.67
2023-03-28T01:45:01.976Z,3.00
2023-03-28T01:47:07.910Z,2.80
2023-03-28T01:49:12.030Z,3.37
2023-03-28T01:51:19.024Z,3.70
2023-03-28T01:53:25.800Z,3.20
2023-03-28T01:55:30.286Z,4.03
2023-03-28T01:57:34.876Z,4.30
2023-03-28T01:59:39.105Z,3.43
2023-03-28T02:01:46.643Z,3.80
2023-03-28T02:03:50.262Z,3.60
2023-03-28T02:05:53.805Z,3.40
2023-03-28T02:07:56.568Z,3.10
2023-03-28T02:10:00.694Z,4.10
2023-03-28T02:12:05.439Z,3.57
2023-03-28T02:14:09.860Z,4.50
2023-03-28T02:16:12.825Z,2.67
2023-03-28T02:18:17.998Z,4.27
2023-03-28T02:20:21.368Z,3.30
2023-03-28T02:22:25.669Z,3.90
2023-03-28T02:24:28.448Z,3.30
2023-03-28T02:26:33.507Z,4.07
2023-03-28T02:28:36.968Z,3.20
2023-03-28T02:30:40.034Z,3.93
2023-03-28T02:32:44.058Z,3.50
2023-03-28T02:34:48.843Z,3.10
2023-03-28T02:36:53.600Z,3.07
2023-03-28T02:39:12.051Z,2.80
2023-03-28T02:41:17.874Z,3.87
2023-03-28T02:43:37.074Z,3.10
2023-03-28T02:45:51.502Z,3.30
2023-03-28T02:48:00.321Z,3.33
2023-03-28T02:50:10.941Z,3.33
2023-03-28T02:52:16.659Z,3.67
2023-03-28T02:54:28.226Z,3.73
2023-03-28T02:56:37.049Z,2.83
2023-03-28T02:58:43.495Z,3.17
2023-03-28T03:00:46.285Z,3.13
2023-03-28T03:02:51.479Z,3.70
2023-03-28T03:04:57.625Z,3.63
2023-03-28T03:07:02.694Z,3.73
2023-03-28T03:09:05.782Z,3.30
2023-03-28T03:11:08.678Z,3.70
2023-03-28T03:13:11.454Z,3.53
2023-03-28T03:15:17.023Z,3.57
2023-03-28T03:17:19.861Z,3.60
2023-03-28T03:19:22.613Z,2.80
2023-03-28T03:21:25.483Z,3.90
2023-03-28T03:23:28.283Z,3.20
2023-03-28T03:25:31.724Z,3.60
2023-03-28T03:27:35.103Z,3.10
2023-03-28T03:29:38.991Z,2.83
2023-03-28T03:31:43.749Z,3.40
2023-03-28T03:33:46.543Z,3.90
2023-03-28T03:35:50.020Z,4.13
2023-03-28T03:37:52.911Z,3.43
2023-03-28T03:39:55.690Z,3.90
2023-03-28T03:41:58.471Z,4.00
2023-03-28T03:44:01.228Z,3.50
2023-03-28T03:46:04.183Z,3.33
2023-03-28T03:48:08.606Z,3.33
2023-03-28T03:50:11.840Z,3.50
2023-03-28T03:52:14.601Z,3.67
2023-03-28T03:54:17.579Z,3.73
2023-03-28T03:56:21.183Z,5.17
2023-03-28T03:58:23.950Z,3.60
2023-03-28T04:00:27.163Z,3.30
2023-03-28T04:02:30.002Z,4.70
2023-03-28T04:04:34.346Z,4.10
2023-03-28T04:06:38.800Z,3.53
2023-03-28T04:08:41.602Z,4.53
2023-03-28T04:10:46.169Z,3.63
2023-03-28T04:12:50.618Z,3.07
2023-03-28T04:14:53.374Z,3.10
2023-03-28T04:16:56.214Z,4.00
2023-03-28T04:18:59.548Z,3.70
2023-03-28T04:21:03.690Z,4.60
2023-03-28T04:23:08.317Z,3.90
2023-03-28T04:25:11.235Z,4.17
2023-03-28T04:27:15.612Z,3.93
2023-03-28T04:29:18.384Z,2.93
2023-03-28T04:31:21.787Z,3.27
2023-03-28T04:33:25.193Z,3.30
2023-03-28T04:35:29.602Z,3.90
2023-03-28T04:37:37.554Z,4.40
2023-03-28T04:39:41.675Z,3.47
2023-03-28T04:41:46.402Z,3.23
2023-03-28T04:43:49.159Z,3.40
2023-03-28T04:45:51.940Z,3.17
2023-03-28T04:47:54.831Z,4.60
2023-03-28T04:49:58.312Z,3.77
2023-03-28T04:52:01.134Z,3.57
2023-03-28T04:54:05.251Z,4.20
2023-03-28T04:56:09.293Z,4.50
2023-03-28T04:58:12.041Z,4.00
2023-03-28T05:00:16.926Z,4.00
2023-03-28T05:02:20.084Z,4.07
2023-03-28T05:04:24.179Z,5.10
2023-03-28T05:06:26.972Z,2.77
2023-03-28T05:08:29.717Z,3.93
2023-03-28T05:10:33.882Z,3.67
2023-03-28T05:12:37.070Z,4.30
2023-03-28T05:14:40.606Z,3.47
2023-03-28T05:16:43.543Z,3.20
2023-03-28T05:18:47.331Z,3.93
2023-03-28T05:20:50.101Z,2.87
2023-03-28T05:22:52.948Z,2.90
2023-03-28T05:24:56.290Z,4.90
2023-03-28T05:27:00.410Z,3.30
2023-03-28T05:29:03.217Z,3.27
2023-03-28T05:31:07.578Z,3.70
2023-03-28T05:33:10.331Z,3.27
2023-03-28T05:35:14.070Z,3.83
2023-03-28T05:37:17.009Z,2.57
2023-03-28T05:39:19.768Z,3.10
2023-03-28T05:41:22.544Z,3.67
2023-03-28T05:43:26.971Z,3.37
2023-03-28T05:45:29.805Z,3.00
2023-03-28T05:47:32.721Z,3.10
2023-03-28T05:49:35.472Z,3.70
2023-03-28T05:51:38.241Z,4.00
2023-03-28T05:53:40.991Z,3.97
2023-03-28T05:55:43.761Z,3.30
2023-03-28T05:57:46.533Z,3.00
2023-03-28T05:59:50.686Z,3.90
2023-03-28T06:01:53.603Z,3.20
2023-03-28T06:03:57.285Z,4.10
2023-03-28T06:06:00.121Z,3.50
2023-03-28T06:08:02.922Z,3.60
2023-03-28T06:10:06.718Z,3.00
2023-03-28T06:12:09.496Z,3.17
2023-03-28T06:14:12.295Z,15.97
2023-03-28T06:16:16.482Z,3.77
2023-03-28T06:18:19.294Z,4.03
2023-03-28T06:20:22.070Z,3.20
2023-03-28T06:22:25.016Z,3.40
2023-03-28T06:24:27.770Z,3.83
2023-03-28T06:26:30.639Z,3.67
2023-03-28T06:28:33.391Z,3.47
2023-03-28T06:30:36.158Z,3.10
2023-03-28T06:32:40.515Z,3.33
2023-03-28T06:34:43.346Z,3.90
2023-03-28T06:36:46.194Z,3.03
2023-03-28T06:38:50.318Z,3.20
2023-03-28T06:40:53.158Z,3.03
2023-03-28T06:42:55.941Z,4.13
2023-03-28T06:44:58.769Z,3.33
2023-03-28T06:47:02.543Z,4.60
2023-03-28T06:49:06.998Z,3.10
2023-03-28T06:51:09.798Z,3.33
2023-03-28T06:53:12.563Z,4.43
2023-03-28T06:55:15.390Z,3.30
2023-03-28T06:57:18.228Z,3.67
2023-03-28T06:59:21.033Z,4.60
2023-03-28T07:01:23.827Z,3.40
2023-03-28T07:03:26.822Z,3.50
2023-03-28T07:05:31.026Z,3.70
2023-03-28T07:07:33.814Z,3.37
2023-03-28T07:09:36.593Z,3.27
2023-03-28T07:11:39.382Z,3.40
2023-03-28T07:13:42.253Z,2.90
2023-03-28T07:15:45.027Z,3.00
2023-03-28T07:17:48.300Z,4.00
2023-03-28T07:19:53.559Z,3.53
2023-03-28T07:21:57.727Z,3.60
2023-03-28T07:24:00.489Z,3.70
2023-03-28T07:26:03.315Z,3.40
2023-03-28T07:28:06.114Z,4.30
2023-03-28T07:30:09.830Z,3.27
2023-03-28T07:32:12.664Z,3.90
2023-03-28T07:34:16.577Z,2.70
2023-03-28T07:36:20.502Z,3.77
2023-03-28T07:38:24.669Z,3.80
2023-03-28T07:40:27.728Z,3.80
2023-03-28T07:42:30.803Z,3.23
2023-03-28T07:44:33.956Z,3.43
2023-03-28T07:46:38.172Z,4.37
2023-03-28T07:48:41.311Z,3.80
2023-03-28T07:50:44.733Z,3.70
2023-03-28T07:52:47.541Z,3.50
2023-03-28T07:54:51.655Z,3.87
2023-03-28T07:56:54.526Z,4.47
2023-03-28T07:58:57.317Z,3.97
2023-03-28T08:01:05.228Z,3.90
2023-03-28T08:03:09.090Z,5.23
2023-03-28T08:05:12.032Z,4.73
2023-03-28T08:07:15.612Z,3.30
2023-03-28T08:09:18.424Z,4.27
2023-03-28T08:11:22.874Z,3.17
2023-03-28T08:13:25.692Z,4.83
2023-03-28T08:15:28.492Z,4.10
2023-03-28T08:17:31.680Z,4.63
2023-03-28T08:19:34.634Z,3.77
2023-03-28T08:21:37.440Z,3.87
2023-03-28T08:23:40.321Z,4.53
2023-03-28T08:25:43.090Z,4.53
2023-03-28T08:27:47.255Z,3.50
2023-03-28T08:29:50.001Z,3.33
2023-03-28T08:31:53.023Z,3.80
2023-03-28T08:33:56.456Z,3.40
2023-03-28T08:35:59.452Z,3.63
2023-03-28T08:38:02.307Z,3.93
2023-03-28T08:40:08.731Z,4.23
2023-03-28T08:42:26.346Z,3.30
2023-03-28T08:44:39.764Z,5.27
2023-03-28T08:46:43.030Z,4.00
2023-03-28T08:48:46.060Z,4.13
2023-03-28T08:50:50.417Z,4.00
2023-03-28T08:52:53.199Z,3.87
2023-03-28T08:54:57.769Z,3.37
2023-03-28T08:57:01.975Z,3.20
2023-03-28T08:59:07.202Z,4.73
2023-03-28T09:01:11.405Z,3.57
2023-03-28T09:03:14.951Z,3.43
2023-03-28T09:05:23.784Z,3.10
2023-03-28T09:07:35.096Z,3.80
2023-03-28T09:09:42.837Z,3.27
2023-03-28T09:11:51.729Z,3.13
2023-03-28T09:14:01.872Z,3.93
2023-03-28T09:16:36.176Z,4.40
2023-03-28T09:18:51.859Z,3.83
2023-03-28T09:20:56.898Z,3.13
2023-03-28T09:23:11.785Z,3.70
2023-03-28T09:25:21.438Z,4.20
2023-03-28T09:27:26.684Z,3.30
2023-03-28T09:29:29.490Z,3.23
2023-03-28T09:31:34.824Z,3.80
2023-03-28T09:33:39.198Z,4.63
2023-03-28T09:35:42.048Z,4.50
2023-03-28T09:37:45.778Z,3.30
2023-03-28T09:39:51.366Z,3.80
2023-03-28T09:41:56.200Z,4.10
2023-03-28T09:44:00.638Z,3.50
2023-03-28T09:46:04.897Z,3.63
2023-03-28T09:48:19.720Z,3.73
2023-03-28T09:50:22.809Z,4.07
2023-03-28T09:52:25.613Z,3.90
2023-03-28T09:54:29.792Z,3.20
2023-03-28T09:56:34.394Z,3.90
2023-03-28T09:58:49.182Z,3.87
2023-03-28T10:00:52.959Z,4.03
2023-03-28T10:02:55.833Z,4.00
2023-03-28T10:05:00.155Z,3.30
2023-03-28T10:07:22.240Z,3.80
2023-03-28T10:09:26.271Z,3.63
2023-03-28T10:11:29.282Z,4.03
2023-03-28T10:13:38.728Z,2.97
2023-03-28T10:15:42.811Z,3.87
2023-03-28T10:17:45.697Z,3.33
2023-03-28T10:19:48.513Z,3.53
2023-03-28T10:21:52.777Z,3.80
2023-03-28T10:23:59.237Z,3.90
2023-03-28T10:26:03.318Z,3.13
2023-03-28T10:28:06.772Z,3.60
2023-03-28T10:30:10.740Z,4.30
2023-03-28T10:32:14.153Z,3.70
2023-03-28T10:34:25.737Z,2.87
2023-03-28T10:36:31.511Z,3.43
2023-03-28T10:38:38.436Z,2.60
2023-03-28T10:40:41.300Z,3.30
2023-03-28T10:42:44.903Z,3.33
2023-03-28T10:44:47.712Z,3.20
2023-03-28T10:46:50.549Z,3.87
2023-03-28T10:48:54.350Z,3.50
2023-03-28T10:50:57.649Z,4.00
2023-03-28T10:53:16.369Z,3.87
2023-03-28T10:55:23.316Z,3.70
2023-03-28T10:57:28.109Z,3.20
2023-03-28T10:59:47.022Z,3.50
2023-03-28T11:01:56.111Z,3.23
2023-03-28T11:04:13.595Z,4.13
2023-03-28T11:06:18.353Z,3.03
2023-03-28T11:08:37.760Z,3.00
2023-03-28T11:10:44.071Z,3.07
2023-03-28T11:12:56.673Z,2.97
2023-03-28T11:15:04.661Z,2.73
2023-03-28T11:17:09.592Z,3.03
2023-03-28T11:19:16.712Z,3.60
2023-03-28T11:21:27.030Z,3.37
2023-03-28T11:23:48.974Z,3.03
2023-03-28T11:25:56.272Z,3.20
2023-03-28T11:28:02.012Z,2.80
2023-03-28T11:30:08.282Z,2.83
2023-03-28T11:32:15.665Z,4.13
2023-03-28T11:34:21.832Z,3.27
2023-03-28T11:36:29.503Z,2.90
2023-03-28T11:38:33.669Z,3.03
2023-03-28T11:40:40.624Z,2.27
2023-03-28T11:42:46.458Z,2.70
2023-03-28T11:44:52.894Z,2.50
2023-03-28T11:46:57.705Z,2.80
2023-03-28T11:49:07.051Z,2.93
2023-03-28T11:51:10.980Z,2.90
2023-03-28T11:53:15.578Z,2.30
2023-03-28T11:55:20.540Z,2.40
2023-03-28T11:57:28.862Z,2.77
2023-03-28T11:59:36.394Z,2.80
2023-03-28T12:01:40.795Z,2.97
2023-03-28T12:03:52.169Z,2.57
2023-03-28T12:06:04.092Z,2.23
2023-03-28T12:08:09.295Z,2.47
2023-03-28T12:10:18.527Z,3.00
2023-03-28T12:12:23.697Z,2.20
2023-03-28T12:14:42.973Z,2.93
2023-03-28T12:16:47.863Z,3.20
2023-03-28T12:18:51.554Z,2.20
2023-03-28T12:21:00.561Z,2.20
2023-03-28T12:23:05.259Z,2.80
2023-03-28T12:25:11.781Z,2.13
2023-03-28T12:27:19.097Z,2.73
2023-03-28T12:29:25.494Z,2.60
2023-03-28T12:31:31.081Z,3.00
2023-03-28T12:33:40.928Z,2.47
2023-03-28T12:35:46.560Z,3.00
2023-03-28T12:37:59.381Z,2.57
2023-03-28T12:40:12.568Z,2.40
2023-03-28T12:42:16.350Z,2.63
2023-03-28T12:44:22.823Z,3.00
2023-03-28T12:46:28.022Z,3.00
2023-03-28T12:48:34.977Z,2.53
2023-03-28T12:50:42.352Z,3.10
2023-03-28T12:52:46.755Z,3.17
2023-03-28T12:54:59.716Z,2.83
2023-03-28T12:57:05.096Z,2.47
2023-03-28T12:59:32.311Z,2.90
2023-03-28T13:01:44.420Z,3.17
2023-03-28T13:03:53.988Z,3.00
2023-03-28T13:05:59.416Z,2.90
2023-03-28T13:08:04.231Z,2.93
2023-03-28T13:10:08.195Z,2.47
2023-03-28T13:12:22.974Z,2.70
2023-03-28T13:14:32.354Z,2.90
2023-03-28T13:16:46.258Z,3.07
2023-03-28T13:18:50.659Z,3.13
2023-03-28T13:20:53.625Z,3.23
2023-03-28T13:23:00.462Z,2.83
2023-03-28T13:25:27.242Z,3.07
2023-03-28T13:27:30.522Z,2.20
2023-03-28T13:29:46.781Z,2.60
2023-03-28T13:31:49.619Z,3.10
2023-03-28T13:33:58.734Z,2.73
2023-03-28T13:36:24.817Z,2.50
2023-03-28T13:38:33.956Z,2.60
2023-03-28T13:40:48.131Z,3.30
2023-03-28T13:42:58.354Z,2.57
2023-03-28T13:45:02.231Z,3.20
2023-03-28T13:47:05.099Z,2.73
2023-03-28T13:49:13.394Z,2.77
2023-03-28T13:51:19.012Z,2.97
2023-03-28T13:53:21.925Z,3.37
2023-03-28T13:55:25.214Z,3.33
2023-03-28T13:57:28.188Z,3.37
2023-03-28T13:59:34.038Z,2.97
2023-03-28T14:01:38.140Z,3.27
2023-03-28T14:03:44.139Z,3.30
2023-03-28T14:05:49.403Z,2.87
2023-03-28T14:07:52.881Z,2.77
2023-03-28T14:09:56.170Z,2.57
2023-03-28T14:11:59.587Z,3.17
2023-03-28T14:14:09.342Z,3.50
2023-03-28T14:16:12.565Z,2.80
2023-03-28T14:18:16.797Z,3.77
2023-03-28T14:20:19.769Z,3.17
2023-03-28T14:22:26.551Z,2.60
2023-03-28T14:24:29.348Z,2.83
2023-03-28T14:26:33.312Z,3.10
2023-03-28T14:28:41.071Z,2.60
2023-03-28T14:30:43.883Z,2.43
2023-03-28T14:32:57.472Z,3.03
2023-03-28T14:35:18.954Z,3.20
2023-03-28T14:37:23.419Z,2.90
2023-03-28T14:39:27.176Z,3.90
2023-03-28T14:41:32.406Z,3.50
2023-03-28T14:43:35.190Z,3.80
2023-03-28T14:45:39.027Z,3.00
2023-03-28T14:47:42.302Z,3.47
2023-03-28T14:49:45.739Z,2.90
2023-03-28T14:51:53.272Z,3.60
2023-03-28T14:53:57.629Z,2.67
2023-03-28T14:56:03.399Z,3.60
2023-03-28T14:58:07.423Z,3.30
2023-03-28T15:00:12.908Z,2.60
2023-03-28T15:02:20.132Z,3.40
2023-03-28T15:04:22.978Z,3.57
2023-03-28T15:06:26.005Z,3.87
2023-03-28T15:08:34.014Z,3.40
2023-03-28T15:10:38.192Z,2.90
2023-03-28T15:12:43.847Z,2.80
2023-03-28T15:14:46.634Z,2.80
2023-03-28T15:16:49.687Z,3.20
2023-03-28T15:18:55.632Z,2.60
2023-03-28T15:20:59.916Z,3.07
2023-03-28T15:23:04.053Z,2.70
2023-03-28T15:25:12.668Z,2.90
2023-03-28T15:27:21.219Z,2.97
2023-03-28T15:29:25.421Z,2.90
2023-03-28T15:31:28.483Z,3.33
2023-03-28T15:33:33.515Z,2.90
2023-03-28T15:35:39.241Z,2.77
2023-03-28T15:37:42.807Z,3.23
2023-03-28T15:39:49.410Z,2.90
2023-03-28T15:41:54.161Z,2.70
2023-03-28T15:44:11.476Z,3.30
2023-03-28T15:46:14.616Z,2.80
2023-03-28T15:48:19.822Z,3.10
2023-03-28T15:50:27.012Z,3.10
2023-03-28T15:52:29.814Z,2.63
2023-03-28T15:54:32.711Z,3.37
2023-03-28T15:56:41.016Z,3.60
2023-03-28T15:58:44.807Z,2.80
2023-03-28T16:00:49.971Z,2.70
2023-03-28T16:02:52.846Z,3.10
2023-03-28T16:05:00.045Z,3.10
2023-03-28T16:07:09.303Z,3.37
2023-03-28T16:09:16.728Z,3.30
2023-03-28T16:11:21.528Z,2.80
2023-03-28T16:13:24.330Z,2.90
2023-03-28T16:15:27.122Z,2.50
2023-03-28T16:17:31.888Z,2.87
2023-03-28T16:19:36.700Z,3.30
2023-03-28T16:21:39.452Z,3.30
2023-03-28T16:23:42.208Z,2.87
2023-03-28T16:25:44.979Z,3.77
2023-03-28T16:27:47.752Z,3.03
2023-03-28T16:29:51.018Z,3.60
2023-03-28T16:31:54.173Z,3.83
2023-03-28T16:34:00.152Z,3.20
2023-03-28T16:36:03.224Z,3.57
2023-03-28T16:38:06.746Z,3.90
2023-03-28T16:40:10.495Z,3.80
2023-03-28T16:42:13.279Z,3.60
2023-03-28T16:44:16.090Z,3.53
2023-03-28T16:46:18.877Z,3.40
2023-03-28T16:48:21.657Z,3.40
2023-03-28T16:50:25.784Z,2.97
2023-03-28T16:52:29.988Z,3.10
2023-03-28T16:54:32.921Z,3.80
2023-03-28T16:56:36.085Z,3.70
2023-03-28T16:58:39.139Z,4.37
2023-03-28T17:00:42.204Z,3.80
2023-03-28T17:02:45.283Z,3.50
2023-03-28T17:04:50.911Z,3.00
2023-03-28T17:06:55.704Z,3.40
2023-03-28T17:08:58.843Z,3.63
2023-03-28T17:11:01.751Z,3.93
2023-03-28T17:13:04.527Z,3.30
2023-03-28T17:15:08.908Z,3.40
2023-03-28T17:17:11.752Z,3.57
2023-03-28T17:19:18.016Z,3.90
2023-03-28T17:21:21.002Z,3.83
2023-03-28T17:23:25.348Z,4.07
2023-03-28T17:25:28.270Z,4.00
2023-03-28T17:27:31.125Z,3.77
2023-03-28T17:29:33.996Z,3.50
2023-03-28T17:31:37.154Z,3.57
2023-03-28T17:33:40.259Z,3.50
2023-03-28T17:35:43.068Z,3.70
2023-03-28T17:37:46.350Z,3.70
2023-03-28T17:39:51.007Z,4.23
2023-03-28T17:41:53.766Z,5.47
2023-03-28T17:43:57.038Z,8.20
2023-03-28T17:46:00.121Z,6.93
2023-03-28T17:48:03.201Z,9.00
2023-03-28T17:50:07.484Z,7.07
2023-03-28T17:52:11.108Z,7.80
2023-03-28T17:54:14.570Z,7.20
2023-03-28T17:56:18.727Z,6.07
2023-03-28T17:58:21.482Z,6.57
2023-03-28T18:00:24.449Z,5.27
2023-03-28T18:02:27.398Z,4.73
2023-03-28T18:04:30.368Z,4.83
2023-03-28T18:06:33.336Z,4.50
2023-03-28T18:08:36.977Z,5.90
2023-03-28T18:10:39.982Z,5.27
2023-03-28T18:12:44.099Z,6.37
2023-03-28T18:14:48.198Z,6.30
2023-03-28T18:16:50.973Z,5.93
2023-03-28T18:18:54.315Z,8.67
2023-03-28T18:20:57.138Z,6.60
2023-03-28T18:22:59.877Z,6.07
2023-03-28T18:25:03.022Z,7.90
2023-03-28T18:27:05.794Z,9.27
2023-03-28T18:29:10.032Z,6.80
2023-03-28T18:31:13.930Z,7.83
2023-03-28T18:33:17.231Z,7.63
2023-03-28T18:35:20.190Z,8.60
2023-03-28T18:37:22.935Z,9.10
2023-03-28T18:39:25.848Z,8.90
2023-03-28T18:41:28.616Z,9.80
2023-03-28T18:43:31.415Z,9.97
2023-03-28T18:45:36.923Z,10.90
2023-03-28T18:47:39.879Z,12.27
2023-03-28T18:49:42.705Z,10.53
2023-03-28T18:51:45.925Z,8.97
2023-03-28T18:53:48.682Z,8.80
2023-03-28T18:55:51.710Z,8.50
2023-03-28T18:57:54.453Z,7.03
2023-03-28T18:59:57.345Z,7.40
2023-03-28T19:02:01.509Z,5.63
2023-03-28T19:04:04.427Z,4.80
2023-03-28T19:06:08.369Z,4.77
2023-03-28T19:08:11.950Z,4.20
2023-03-28T19:10:14.773Z,4.13
2023-03-28T19:12:17.556Z,4.37
2023-03-28T19:14:20.330Z,4.67
2023-03-28T19:16:23.613Z,3.77
2023-03-28T19:18:27.878Z,4.70
2023-03-28T19:20:30.688Z,4.00
2023-03-28T19:22:33.445Z,4.20
2023-03-28T19:24:36.393Z,4.20
2023-03-28T19:26:39.190Z,5.23
2023-03-28T19:28:42.279Z,4.53
2023-03-28T19:30:45.258Z,5.30
2023-03-28T19:32:48.081Z,5.13
2023-03-28T19:34:53.226Z,4.10
2023-03-28T19:36:56.082Z,4.77
2023-03-28T19:38:58.872Z,4.40
2023-03-28T19:41:02.434Z,5.60
2023-03-28T19:43:05.418Z,4.80
2023-03-28T19:45:09.071Z,5.60
2023-03-28T19:47:11.866Z,5.10
2023-03-28T19:49:15.591Z,4.87
2023-03-28T19:51:19.698Z,4.60
2023-03-28T19:53:22.459Z,5.90
2023-03-28T19:55:25.243Z,4.03
2023-03-28T19:57:28.052Z,4.20
2023-03-28T19:59:30.909Z,4.90
2023-03-28T20:01:33.730Z,4.50
2023-03-28T20:03:36.502Z,4.30
2023-03-28T20:05:41.627Z,5.00
2023-03-28T20:07:45.734Z,5.33
2023-03-28T20:09:49.091Z,5.30
2023-03-28T20:11:52.840Z,5.00
2023-03-28T20:13:55.763Z,5.13
2023-03-28T20:15:58.592Z,4.87
2023-03-28T20:18:02.363Z,5.70
2023-03-28T20:20:06.136Z,4.93
2023-03-28T20:22:08.916Z,5.60
2023-03-28T20:24:13.308Z,4.77
2023-03-28T20:26:18.099Z,5.50
2023-03-28T20:28:21.405Z,4.40
2023-03-28T20:30:24.235Z,4.30
2023-03-28T20:32:27.102Z,4.40
2023-03-28T20:34:29.897Z,4.27
2023-03-28T20:36:33.029Z,4.00
2023-03-28T20:38:35.884Z,4.50
2023-03-28T20:40:41.419Z,4.70
2023-03-28T20:42:44.201Z,4.53
2023-03-28T20:44:47.720Z,5.27
2023-03-28T20:46:50.518Z,5.53
2023-03-28T20:48:56.943Z,4.50
2023-03-28T20:51:02.750Z,5.27
2023-03-28T20:53:06.367Z,4.87
2023-03-28T20:55:10.190Z,5.03
2023-03-28T20:57:14.391Z,4.60
2023-03-28T20:59:17.301Z,4.90
2023-03-28T21:01:25.151Z,4.90
2023-03-28T21:03:39.153Z,4.30
2023-03-28T21:05:42.926Z,4.23
2023-03-28T21:07:45.679Z,4.30
2023-03-28T21:09:48.400Z,4.70
2023-03-28T21:11:51.161Z,4.60
2023-03-28T21:13:55.324Z,4.17
2023-03-28T21:15:58.289Z,4.70
2023-03-28T21:18:01.156Z,5.00
2023-03-28T21:20:07.197Z,5.20
2023-03-28T21:22:09.957Z,5.10
2023-03-28T21:24:12.713Z,4.50
2023-03-28T21:26:16.439Z,4.57
2023-03-28T21:28:19.246Z,4.30
2023-03-28T21:30:23.358Z,4.87
2023-03-28T21:32:27.896Z,3.90
2023-03-28T21:34:33.870Z,4.20
2023-03-28T21:36:36.670Z,3.20
2023-03-28T21:38:39.495Z,3.53
2023-03-28T21:40:42.272Z,3.90
2023-03-28T21:42:45.073Z,3.97
2023-03-28T21:44:47.845Z,3.57
2023-03-28T21:46:52.138Z,3.90
2023-03-28T21:48:55.137Z,4.37
2023-03-28T21:50:59.810Z,5.00
2023-03-28T21:53:02.756Z,4.07
2023-03-28T21:55:06.144Z,3.73
2023-03-28T21:57:09.053Z,3.67
2023-03-28T21:59:11.853Z,3.83
2023-03-28T22:01:15.280Z,3.97
2023-03-28T22:03:19.633Z,3.73
2023-03-28T22:05:29.257Z,4.90
2023-03-28T22:07:32.832Z,3.10
2023-03-28T22:09:35.816Z,3.27
2023-03-28T22:11:39.379Z,4.17
2023-03-28T22:13:42.251Z,3.50
2023-03-28T22:15:45.084Z,3.90
2023-03-28T22:17:47.947Z,3.90
2023-03-28T22:19:53.839Z,3.70
2023-03-28T22:21:56.727Z,3.70
2023-03-28T22:24:00.008Z,2.93
2023-03-28T22:26:03.493Z,3.43
2023-03-28T22:28:07.159Z,3.20
2023-03-28T22:30:11.794Z,4.00
2023-03-28T22:32:14.721Z,3.63
2023-03-28T22:34:17.728Z,3.20
2023-03-28T22:36:22.641Z,3.10
2023-03-28T22:38:25.420Z,3.83
2023-03-28T22:40:28.397Z,3.50
2023-03-28T22:42:31.328Z,3.10
2023-03-28T22:44:34.105Z,3.60
2023-03-28T22:46:40.657Z,3.00
2023-03-28T22:48:43.569Z,3.27
2023-03-28T22:50:46.352Z,3.30
2023-03-28T22:52:52.706Z,3.07
2023-03-28T22:54:55.823Z,3.20
2023-03-28T22:56:58.765Z,3.03
2023-03-28T22:59:01.951Z,3.43
2023-03-28T23:01:04.895Z,3.27
2023-03-28T23:03:08.909Z,2.83
2023-03-28T23:05:12.663Z,3.20
2023-03-28T23:07:16.364Z,3.13
2023-03-28T23:09:20.549Z,2.60
2023-03-28T23:11:23.358Z,2.80
2023-03-28T23:13:26.130Z,2.73
2023-03-28T23:15:28.956Z,3.97
2023-03-28T23:17:32.158Z,2.90
2023-03-28T23:19:34.974Z,3.53
2023-03-28T23:21:37.813Z,2.93
2023-03-28T23:23:41.685Z,2.73
2023-03-28T23:25:47.249Z,2.70
2023-03-28T23:27:50.591Z,2.97
2023-03-28T23:29:53.366Z,4.07
2023-03-28T23:31:56.360Z,3.30
2023-03-28T23:33:59.251Z,3.03
2023-03-28T23:36:02.068Z,2.97
2023-03-28T23:38:05.130Z,2.63
2023-03-28T23:40:14.249Z,2.87
2023-03-28T23:42:19.214Z,2.80
2023-03-28T23:44:22.002Z,3.17
2023-03-28T23:46:24.987Z,2.93
2023-03-28T23:48:27.915Z,3.17
2023-03-28T23:50:31.650Z,2.90
2023-03-28T23:52:34.476Z,3.50
2023-03-28T23:54:37.470Z,2.43
2023-03-28T23:56:41.254Z,3.00
2023-03-28T23:58:45.401Z,2.40
